Time;durP1;ratioP1;P1;durP2;ratioP2;P2;SDS_P1;SDS_P2;PMS_P1;PMS_P2;Temp;Humidity;BMP_temperature;BMP_pressure;BME280_temperature;BME280_humidity;BME280_pressure;Samples;Min_cycle;Max_cycle;Signal;HPM_P1;HPM_P2
2022/12/01 00:00:59;;;;;;;16.60;10.35;;;19.40;55.80;;;;;;6277643;28;20029;-70
2022/12/01 00:04:00;;;;;;;15.32;9.82;;;19.40;55.80;;;;;;6271739;28;20395;-70
2022/12/01 00:07:01;;;;;;;13.68;8.88;;;19.40;55.80;;;;;;6295568;28;20033;-70
2022/12/01 00:13:21;;;;;;;12.82;9.02;;;19.40;55.80;;;;;;6295230;28;20032;-70
2022/12/01 00:16:22;;;;;;;14.30;9.40;;;19.40;55.80;;;;;;6276226;28;20106;-70
2022/12/01 00:19:26;;;;;;;14.00;9.85;;;19.40;55.80;;;;;;6272368;28;20021;-70
2022/12/01 00:22:27;;;;;;;14.73;9.68;;;19.40;55.80;;;;;;6295040;28;20380;-70
2022/12/01 00:25:28;;;;;;;15.75;9.55;;;19.40;55.80;;;;;;6284891;28;20086;-70
2022/12/01 00:28:28;;;;;;;14.23;9.57;;;19.40;55.80;;;;;;6269940;28;20215;-71
2022/12/01 00:31:29;;;;;;;12.95;9.13;;;19.40;55.80;;;;;;6287928;28;20387;-70
2022/12/01 00:34:29;;;;;;;14.25;9.60;;;19.40;55.80;;;;;;6294103;28;20075;-70
2022/12/01 00:37:32;;;;;;;15.80;10.05;;;19.40;55.80;;;;;;6294495;28;20071;-70
2022/12/01 00:40:32;;;;;;;14.73;9.48;;;19.40;55.80;;;;;;6286500;28;20032;-71
2022/12/01 00:43:33;;;;;;;13.93;10.05;;;19.40;55.80;;;;;;6269360;28;20546;-71
2022/12/01 00:46:33;;;;;;;15.35;9.68;;;19.40;55.80;;;;;;6286195;28;20043;-70
2022/12/01 00:49:34;;;;;;;14.27;8.88;;;19.40;55.80;;;;;;6294740;28;20387;-70
2022/12/01 00:52:35;;;;;;;14.30;9.38;;;19.40;55.80;;;;;;6270346;28;20044;-70
2022/12/01 00:55:35;;;;;;;14.40;9.35;;;19.40;55.80;;;;;;6275827;28;20136;-71
2022/12/01 00:58:36;;;;;;;13.88;9.15;;;19.40;55.80;;;;;;6294750;28;20021;-70
2022/12/01 01:01:37;;;;;;;13.65;9.25;;;19.40;55.80;;;;;;6279292;28;20598;-70
2022/12/01 01:04:37;;;;;;;14.20;9.35;;;19.40;55.80;;;;;;6269105;28;20036;-71
2022/12/01 01:07:38;;;;;;;14.00;9.63;;;19.40;55.90;;;;;;6291513;28;20073;-70
2022/12/01 01:10:40;;;;;;;13.70;9.63;;;19.40;55.80;;;;;;6288068;28;20028;-70
2022/12/01 01:13:41;;;;;;;15.15;9.80;;;19.40;55.80;;;;;;6293800;28;20198;-70
2022/12/01 01:16:41;;;;;;;15.38;10.00;;;19.40;55.80;;;;;;6279770;28;20021;-71
2022/12/01 01:19:42;;;;;;;15.35;10.02;;;19.40;55.80;;;;;;6269268;28;20457;-70
2022/12/01 01:22:42;;;;;;;13.50;9.48;;;19.40;55.80;;;;;;6289239;28;20056;-70
2022/12/01 01:25:43;;;;;;;14.68;9.40;;;19.40;55.80;;;;;;6289552;28;20020;-70
2022/12/01 01:28:44;;;;;;;14.05;8.77;;;19.40;55.80;;;;;;6268876;28;20025;-70
2022/12/01 01:31:45;;;;;;;15.10;9.35;;;19.40;55.90;;;;;;6280037;28;20024;-70
2022/12/01 01:34:45;;;;;;;14.60;9.45;;;19.40;55.80;;;;;;6291823;28;20027;-70
2022/12/01 01:37:46;;;;;;;16.73;10.60;;;19.40;55.90;;;;;;6287615;28;20032;-70
2022/12/01 01:40:47;;;;;;;14.43;9.05;;;19.40;55.80;;;;;;6290878;28;20024;-70
2022/12/01 01:43:49;;;;;;;12.65;8.70;;;19.40;55.80;;;;;;6268163;28;20056;-70
2022/12/01 01:46:50;;;;;;;14.10;9.30;;;19.40;55.90;;;;;;6278712;28;20039;-70
2022/12/01 01:49:52;;;;;;;13.65;9.05;;;19.40;55.80;;;;;;6292649;28;20021;-70
2022/12/01 01:53:07;;;;;;;13.60;9.32;;;19.40;55.90;;;;;;6274153;28;20533;-70
2022/12/01 01:56:08;;;;;;;13.52;9.07;;;19.40;55.80;;;;;;6271073;28;20052;-71
2022/12/01 01:59:11;;;;;;;13.68;8.70;;;19.40;55.80;;;;;;6292875;28;20394;-70
2022/12/01 02:02:12;;;;;;;13.68;8.98;;;19.40;55.80;;;;;;6281370;28;20532;-70
2022/12/01 02:05:33;;;;;;;14.98;9.35;;;19.40;55.80;;;;;;6267727;28;20059;-70
2022/12/01 02:08:36;;;;;;;13.52;8.82;;;19.40;55.80;;;;;;6288928;28;20107;-70
2022/12/01 02:12:03;;;;;;;14.70;9.27;;;19.40;55.80;;;;;;6278850;28;20070;-71
2022/12/01 02:15:17;;;;;;;16.70;9.70;;;19.40;55.80;;;;;;6254021;28;20135;-71
2022/12/01 02:18:27;;;;;;;12.85;8.38;;;19.40;55.80;;;;;;6274578;28;20048;-71
2022/12/01 02:21:45;;;;;;;12.30;8.52;;;19.40;55.90;;;;;;6269664;28;20028;-70
2022/12/01 02:24:51;;;;;;;14.45;8.95;;;19.40;55.80;;;;;;6291800;28;20033;-70
2022/12/01 02:28:11;;;;;;;13.30;8.32;;;19.40;55.80;;;;;;6278738;28;20386;-70
2022/12/01 02:31:36;;;;;;;12.48;8.60;;;19.40;55.90;;;;;;6267433;28;20076;-70
2022/12/01 02:34:47;;;;;;;13.38;8.70;;;19.40;55.80;;;;;;6267589;28;20052;-70
2022/12/01 02:38:06;;;;;;;14.80;8.98;;;19.40;55.80;;;;;;6278335;28;20497;-70
2022/12/01 02:41:15;;;;;;;14.85;9.38;;;19.40;55.90;;;;;;6292156;28;20096;-70
2022/12/01 02:44:42;;;;;;;14.07;9.23;;;19.40;55.80;;;;;;6269260;28;20373;-70
2022/12/01 02:47:44;;;;;;;15.30;9.63;;;19.40;55.80;;;;;;6273238;28;20084;-71
2022/12/01 02:50:46;;;;;;;15.30;9.32;;;19.40;55.80;;;;;;6291563;28;20024;-70
2022/12/01 02:53:47;;;;;;;13.80;9.38;;;19.40;55.90;;;;;;6274604;28;20718;-71
2022/12/01 02:56:52;;;;;;;14.63;9.25;;;19.40;55.90;;;;;;6266811;28;20034;-70
2022/12/01 02:59:54;;;;;;;14.18;8.95;;;19.40;55.90;;;;;;6292635;28;20107;-70
2022/12/01 03:03:03;;;;;;;13.55;8.48;;;19.40;55.90;;;;;;6287785;28;20524;-70
2022/12/01 03:06:25;;;;;;;16.05;9.57;;;19.40;55.90;;;;;;6272139;28;20511;-70
2022/12/01 03:09:38;;;;;;;13.95;9.13;;;19.40;55.80;;;;;;6292060;28;20082;-70
2022/12/01 03:12:47;;;;;;;13.98;9.07;;;19.40;55.80;;;;;;6277249;28;20043;-70
2022/12/01 03:16:09;;;;;;;12.98;8.60;;;19.40;55.80;;;;;;6296674;28;20466;-70
2022/12/01 03:19:18;;;;;;;14.80;9.00;;;19.40;55.90;;;;;;6279611;28;20040;-70
2022/12/01 03:22:38;;;;;;;14.80;9.13;;;19.40;55.80;;;;;;6272713;28;20444;-71
2022/12/01 03:25:42;;;;;;;15.32;9.35;;;19.40;55.80;;;;;;6295590;28;20033;-70
2022/12/01 03:28:47;;;;;;;15.02;8.88;;;19.40;55.80;;;;;;6284882;28;20028;-70
2022/12/01 03:31:54;;;;;;;14.40;9.30;;;19.40;55.90;;;;;;6271817;28;20064;-70
2022/12/01 03:34:57;;;;;;;13.27;8.55;;;19.40;55.80;;;;;;6274094;28;20033;-71
2022/12/01 03:38:11;;;;;;;15.55;8.93;;;19.40;55.80;;;;;;6291375;28;20484;-70
2022/12/01 03:41:18;;;;;;;15.07;9.30;;;19.40;55.80;;;;;;6270206;28;20205;-70
2022/12/01 03:44:28;;;;;;;15.70;9.75;;;19.40;55.80;;;;;;6285974;28;20059;-70
2022/12/01 03:47:36;;;;;;;17.25;10.05;;;19.40;55.80;;;;;;6296061;28;20474;-71
2022/12/01 03:51:12;;;;;;;14.25;9.30;;;19.40;55.80;;;;;;6270744;28;20082;-70
2022/12/01 03:54:24;;;;;;;14.90;9.27;;;19.40;55.90;;;;;;6263147;28;20041;-70
2022/12/01 03:57:31;;;;;;;12.32;8.75;;;19.40;55.90;;;;;;6291690;28;20412;-70
2022/12/01 04:00:32;;;;;;;13.95;8.88;;;19.40;55.90;;;;;;6271278;28;20024;-70
2022/12/01 04:03:33;;;;;;;15.18;9.20;;;19.40;55.80;;;;;;6274572;28;20048;-71
2022/12/01 04:06:34;;;;;;;13.18;8.48;;;19.40;55.90;;;;;;6294092;28;20029;-70
2022/12/01 04:09:35;;;;;;;14.23;8.68;;;19.40;55.80;;;;;;6280187;28;20025;-70
2022/12/01 04:12:35;;;;;;;13.27;8.48;;;19.40;55.90;;;;;;6267846;28;20027;-70
2022/12/01 04:15:36;;;;;;;16.17;9.80;;;19.40;55.80;;;;;;6290285;28;20028;-70
2022/12/01 04:18:36;;;;;;;14.73;8.63;;;19.40;55.90;;;;;;6289477;28;20075;-70
2022/12/01 04:21:37;;;;;;;14.55;9.75;;;19.40;55.80;;;;;;6268997;28;20074;-70
2022/12/01 04:24:37;;;;;;;15.43;9.05;;;19.40;55.80;;;;;;6280728;28;20043;-70
2022/12/01 04:27:38;;;;;;;15.93;9.48;;;19.40;55.90;;;;;;6293712;28;20025;-70
2022/12/01 04:30:39;;;;;;;14.15;9.02;;;19.40;55.80;;;;;;6273809;28;20033;-70
2022/12/01 04:33:39;;;;;;;16.17;9.80;;;19.40;55.80;;;;;;6270899;28;20032;-71
2022/12/01 04:36:40;;;;;;;16.48;9.63;;;19.40;55.90;;;;;;6275798;28;20039;-70
2022/12/01 04:39:43;;;;;;;15.18;9.45;;;19.40;55.90;;;;;;6278967;28;20029;-70
2022/12/01 04:42:44;;;;;;;14.48;9.10;;;19.40;55.80;;;;;;6293139;28;20383;-70
2022/12/01 04:45:45;;;;;;;14.50;8.68;;;19.40;55.80;;;;;;6275070;28;20021;-70
2022/12/01 04:48:45;;;;;;;14.00;8.75;;;19.40;55.80;;;;;;6269593;28;20468;-70
2022/12/01 04:51:47;;;;;;;13.77;8.63;;;19.40;55.80;;;;;;6293051;28;20031;-71
2022/12/01 04:56:04;;;;;;;14.00;8.43;;;19.40;55.80;;;;;;6315966;28;20407;-69
2022/12/01 05:03:02;;;;;;;;;;;19.40;55.90;;;;;;6291483;28;20096;-69
2022/12/01 05:06:09;;;;;;;15.18;9.07;;;19.40;55.80;;;;;;6290691;28;20327;-70
2022/12/01 05:09:13;;;;;;;14.25;8.75;;;19.40;55.80;;;;;;6289546;28;20029;-70
2022/12/01 05:12:15;;;;;;;14.35;9.18;;;19.40;55.80;;;;;;6290559;28;20082;-70
2022/12/01 05:15:16;;;;;;;13.98;8.65;;;19.40;55.80;;;;;;6289660;28;20107;-70
2022/12/01 05:18:18;;;;;;;13.85;8.95;;;19.40;55.80;;;;;;6289499;28;20058;-70
2022/12/01 05:21:18;;;;;;;14.40;9.13;;;19.40;55.80;;;;;;6290461;28;20029;-69
2022/12/01 05:24:20;;;;;;;13.05;8.65;;;19.40;55.80;;;;;;6290191;28;20105;-70
2022/12/01 05:27:21;;;;;;;13.38;8.68;;;19.30;55.70;;;;;;6290456;28;20098;-69
2022/12/01 05:30:21;;;;;;;15.48;9.00;;;19.40;55.80;;;;;;6288782;28;20017;-69
2022/12/01 05:33:24;;;;;;;13.90;9.25;;;19.40;55.80;;;;;;6290234;28;20024;-70
2022/12/01 05:36:24;;;;;;;12.75;8.13;;;19.40;55.80;;;;;;6289900;28;20159;-70
2022/12/01 05:39:25;;;;;;;14.07;8.50;;;19.40;55.80;;;;;;6290234;28;20029;-70
2022/12/01 05:42:26;;;;;;;14.75;9.35;;;19.40;55.80;;;;;;6288575;28;20490;-70
2022/12/01 05:45:27;;;;;;;13.98;9.32;;;19.40;55.80;;;;;;6289908;28;20102;-70
2022/12/01 05:48:27;;;;;;;12.77;8.15;;;19.40;55.80;;;;;;6289960;28;20458;-69
2022/12/01 05:51:28;;;;;;;14.43;9.05;;;19.40;55.80;;;;;;6289571;28;20025;-69
2022/12/01 05:54:29;;;;;;;14.48;8.68;;;19.40;55.80;;;;;;6289121;28;20120;-70
2022/12/01 05:57:31;;;;;;;14.90;9.00;;;19.40;55.80;;;;;;6288410;28;20031;-69
2022/12/01 06:00:31;;;;;;;13.60;8.57;;;19.40;55.80;;;;;;6287879;28;20028;-69
2022/12/01 06:03:32;;;;;;;13.05;8.68;;;19.40;55.80;;;;;;6288158;28;20453;-70
2022/12/01 06:06:33;;;;;;;15.38;10.30;;;19.40;55.80;;;;;;6277629;28;20078;-69
2022/12/01 06:09:34;;;;;;;12.77;8.27;;;19.40;55.70;;;;;;6273006;28;20025;-70
2022/12/01 06:12:35;;;;;;;13.15;8.40;;;19.40;55.80;;;;;;6267447;28;20429;-71
2022/12/01 06:15:37;;;;;;;13.98;9.00;;;19.40;55.80;;;;;;6270922;28;20116;-71
2022/12/01 06:18:38;;;;;;;13.68;8.77;;;19.40;55.70;;;;;;6272166;28;20025;-71
2022/12/01 06:21:38;;;;;;;13.80;8.75;;;19.40;55.70;;;;;;6268487;28;20389;-72
2022/12/01 06:24:39;;;;;;;15.68;9.40;;;19.40;55.70;;;;;;6270749;28;20067;-71
2022/12/01 06:27:40;;;;;;;14.88;9.20;;;19.40;55.70;;;;;;6271007;28;20371;-72
2022/12/01 06:30:40;;;;;;;13.57;8.68;;;19.40;55.60;;;;;;6271402;28;20170;-72
2022/12/01 06:33:41;;;;;;;14.95;8.75;;;19.40;55.70;;;;;;6270404;28;20108;-72
2022/12/01 06:36:42;;;;;;;13.98;8.63;;;19.40;55.60;;;;;;6270456;28;20459;-72
2022/12/01 06:39:43;;;;;;;14.50;8.65;;;19.40;55.70;;;;;;6290601;28;20474;-73
2022/12/01 06:42:44;;;;;;;13.18;8.77;;;19.40;55.70;;;;;;6291105;28;20028;-72
2022/12/01 06:45:44;;;;;;;17.67;9.40;;;19.40;55.70;;;;;;6270468;28;20029;-72
2022/12/01 06:48:47;;;;;;;13.63;8.68;;;19.40;55.70;;;;;;6269226;28;20488;-72
2022/12/01 06:51:49;;;;;;;13.68;8.80;;;19.40;55.70;;;;;;6269451;28;20116;-73
2022/12/01 06:54:49;;;;;;;14.65;9.55;;;19.40;56.40;;;;;;6290272;28;20072;-72
2022/12/01 06:57:51;;;;;;;15.35;9.75;;;19.40;55.70;;;;;;6292094;28;20025;-72
2022/12/01 07:00:51;;;;;;;14.43;9.25;;;19.40;55.70;;;;;;6262996;28;20021;-72
2022/12/01 07:03:52;;;;;;;13.63;9.30;;;19.40;55.70;;;;;;6258976;28;20033;-72
2022/12/01 07:06:53;;;;;;;15.20;9.43;;;19.40;55.70;;;;;;6252985;28;20037;-72
2022/12/01 07:09:54;;;;;;;14.27;9.25;;;19.40;55.70;;;;;;6299996;28;20033;-72
2022/12/01 07:12:56;;;;;;;13.77;8.68;;;19.40;55.70;;;;;;6270679;28;20029;-72
2022/12/01 07:15:57;;;;;;;13.70;9.02;;;19.40;55.70;;;;;;6280579;28;20074;-72
2022/12/01 07:18:58;;;;;;;13.55;8.73;;;19.40;55.80;;;;;;6284923;28;20474;-72
2022/12/01 07:22:00;;;;;;;13.15;8.60;;;19.40;55.70;;;;;;6271632;28;20571;-72
2022/12/01 07:25:00;;;;;;;15.70;10.05;;;19.40;55.80;;;;;;6270365;28;20021;-71
2022/12/01 07:28:01;;;;;;;17.50;9.95;;;19.50;55.70;;;;;;6270167;28;20453;-72
2022/12/01 07:31:10;;;;;;;17.20;9.90;;;19.50;55.70;;;;;;6270355;28;20607;-71
2022/12/01 07:34:14;;;;;;;17.48;9.68;;;19.50;55.80;;;;;;6279381;28;20025;-71
2022/12/01 07:37:15;;;;;;;17.65;9.98;;;19.50;55.80;;;;;;6296239;28;20025;-71
2022/12/01 07:40:16;;;;;;;14.80;9.95;;;19.50;55.80;;;;;;6297354;28;20039;-71
2022/12/01 07:43:17;;;;;;;14.60;9.25;;;19.40;55.80;;;;;;6297267;28;20454;-71
2022/12/01 07:46:20;;;;;;;15.43;9.55;;;19.50;55.90;;;;;;6295462;28;20031;-71
2022/12/01 07:49:21;;;;;;;14.82;9.75;;;19.40;55.80;;;;;;6295534;28;20051;-68
2022/12/01 07:52:22;;;;;;;17.23;10.35;;;19.40;55.80;;;;;;6297080;28;20021;-67
2022/12/01 07:55:23;;;;;;;15.55;9.70;;;19.40;55.80;;;;;;6295559;28;20512;-71
2022/12/01 07:58:25;;;;;;;16.33;10.57;;;19.40;55.70;;;;;;6296952;28;20017;-67
2022/12/01 08:01:25;;;;;;;16.95;11.25;;;19.40;55.70;;;;;;6295294;28;20023;-68
2022/12/01 08:04:26;;;;;;;19.65;11.82;;;19.40;55.70;;;;;;6295563;28;20394;-68
2022/12/01 08:07:27;;;;;;;15.15;10.68;;;19.40;55.70;;;;;;6296754;28;20025;-68
2022/12/01 08:10:27;;;;;;;18.85;10.98;;;19.40;55.60;;;;;;6295616;28;20036;-68
2022/12/01 08:13:28;;;;;;;18.88;11.98;;;19.40;55.60;;;;;;6295149;28;20444;-68
2022/12/01 08:16:30;;;;;;;16.63;11.52;;;19.40;55.60;;;;;;6295592;28;20028;-69
2022/12/01 08:19:30;;;;;;;18.45;11.20;;;19.40;55.60;;;;;;6296294;28;20017;-68
2022/12/01 08:22:31;;;;;;;18.15;12.25;;;19.40;55.60;;;;;;6295025;28;20392;-68
2022/12/01 08:25:32;;;;;;;19.08;11.95;;;19.40;55.60;;;;;;6296125;28;20073;-68
2022/12/01 08:28:35;;;;;;;19.33;12.20;;;19.40;55.60;;;;;;6296373;28;20032;-68
2022/12/01 08:31:36;;;;;;;21.58;13.00;;;19.40;55.60;;;;;;6295148;28;20020;-68
2022/12/01 08:34:37;;;;;;;21.17;13.10;;;19.40;55.60;;;;;;6296534;28;20048;-68
2022/12/01 08:37:38;;;;;;;18.90;12.63;;;19.40;55.50;;;;;;6294965;28;20016;-68
2022/12/01 08:40:39;;;;;;;18.15;12.40;;;19.40;55.50;;;;;;6295112;28;20020;-68
2022/12/01 08:43:43;;;;;;;20.05;13.43;;;19.40;55.50;;;;;;6291408;28;20104;-68
2022/12/01 08:46:43;;;;;;;20.77;13.40;;;19.40;55.60;;;;;;6295724;28;20016;-68
2022/12/01 08:49:44;;;;;;;20.83;13.15;;;19.40;55.50;;;;;;6289184;28;20040;-70
2022/12/01 08:52:45;;;;;;;17.98;12.27;;;19.40;55.50;;;;;;6268396;28;20671;-72
2022/12/01 08:55:45;;;;;;;19.55;12.40;;;19.40;55.50;;;;;;6257894;28;20098;-72
2022/12/01 08:58:46;;;;;;;21.10;13.50;;;19.40;55.50;;;;;;6276750;28;20025;-73
2022/12/01 09:01:51;;;;;;;22.27;12.70;;;19.40;55.60;;;;;;6281286;28;20045;-73
2022/12/01 09:04:52;;;;;;;20.38;12.90;;;19.40;55.60;;;;;;6270287;28;20032;-73
2022/12/01 09:08:30;;;;;;;25.42;14.55;;;19.50;55.70;;;;;;6293036;28;20029;-73
2022/12/01 09:11:16;;;;;;;22.10;13.73;;;19.40;55.60;;;;;;6261856;28;20025;-72
2022/12/01 09:14:18;;;;;;;26.58;15.60;;;19.40;55.60;;;;;;6270720;28;20025;-72
2022/12/01 09:17:19;;;;;;;24.42;16.42;;;19.40;55.60;;;;;;6272232;28;20056;-72
2022/12/01 09:20:20;;;;;;;31.60;16.92;;;19.40;55.40;;;;;;6269690;28;20028;-73
2022/12/01 09:23:22;;;;;;;29.30;18.15;;;19.40;55.30;;;;;;6272780;28;20024;-70
2022/12/01 09:26:23;;;;;;;30.27;18.73;;;19.40;55.30;;;;;;6294301;28;20107;-72
2022/12/01 09:29:24;;;;;;;31.73;18.75;;;19.40;55.00;;;;;;6294686;28;20541;-72
2022/12/01 09:32:25;;;;;;;36.78;21.00;;;19.40;55.00;;;;;;6272327;28;20025;-73
2022/12/01 09:35:26;;;;;;;33.10;20.13;;;19.40;54.90;;;;;;6281582;28;20088;-72
2022/12/01 09:38:31;;;;;;;35.20;21.48;;;19.40;54.70;;;;;;6271915;28;20087;-73
2022/12/01 09:41:38;;;;;;;42.67;23.25;;;19.40;54.80;;;;;;6266627;28;20044;-74
2022/12/01 09:44:50;;;;;;;44.10;24.23;;;19.40;54.70;;;;;;6296824;28;20020;-72
2022/12/01 09:47:54;;;;;;;39.25;24.40;;;19.40;54.50;;;;;;6290452;28;20363;-72
2022/12/01 09:50:56;;;;;;;42.08;24.88;;;19.40;54.40;;;;;;6273182;28;20029;-75
2022/12/01 09:53:58;;;;;;;46.67;27.50;;;19.40;54.30;;;;;;6272345;28;20048;-73
2022/12/01 09:56:59;;;;;;;41.10;25.27;;;19.40;54.20;;;;;;6273617;28;20028;-72
2022/12/01 10:00:24;;;;;;;44.33;27.65;;;19.40;54.30;;;;;;6271898;28;20485;-71
2022/12/01 10:03:44;;;;;;;44.50;27.70;;;19.40;54.10;;;;;;6270813;28;20083;-70
2022/12/01 10:07:05;;;;;;;45.42;27.92;;;19.40;53.80;;;;;;6273013;28;20029;-72
2022/12/01 10:10:13;;;;;;;49.58;28.17;;;19.40;53.90;;;;;;6274211;28;20021;-72
2022/12/01 10:13:26;;;;;;;50.72;28.80;;;19.40;53.90;;;;;;6274686;28;20505;-71
2022/12/01 10:16:35;;;;;;;52.75;30.10;;;19.40;53.80;;;;;;6273407;28;20029;-72
2022/12/01 10:20:04;;;;;;;50.42;30.25;;;19.40;53.50;;;;;;6273268;28;20028;-72
2022/12/01 10:23:29;;;;;;;52.60;31.08;;;19.40;53.50;;;;;;6274711;28;20051;-71
2022/12/01 10:27:04;;;;;;;49.97;28.73;;;19.40;53.60;;;;;;6280923;28;20519;-72
2022/12/01 10:30:11;;;;;;;51.55;31.00;;;19.40;53.70;;;;;;6273978;28;20469;-71
2022/12/01 10:33:39;;;;;;;46.55;29.40;;;19.40;53.40;;;;;;6272553;28;20064;-72
2022/12/01 10:36:40;;;;;;;49.25;30.73;;;19.40;54.10;;;;;;6273896;28;20029;-72
2022/12/01 10:39:45;;;;;;;52.05;30.98;;;19.40;53.30;;;;;;6273558;28;20074;-72
2022/12/01 10:42:48;;;;;;;50.92;30.00;;;19.40;53.20;;;;;;6273550;28;20021;-72
2022/12/01 10:45:49;;;;;;;43.80;28.15;;;19.40;53.00;;;;;;6272448;28;20033;-72
2022/12/01 10:48:57;;;;;;;44.80;28.65;;;19.40;52.90;;;;;;6289224;28;20560;-72
2022/12/01 10:51:58;;;;;;;44.13;27.98;;;19.40;53.00;;;;;;6278514;28;20021;-72
2022/12/01 10:55:00;;;;;;;41.88;27.17;;;19.40;53.10;;;;;;6272463;28;20041;-71
2022/12/01 10:58:12;;;;;;;47.80;28.60;;;19.40;53.30;;;;;;6273702;28;20394;-71
2022/12/01 11:01:35;;;;;;;45.78;29.08;;;19.40;53.40;;;;;;6280711;28;20030;-72
2022/12/01 11:04:56;;;;;;;45.42;27.85;;;19.40;53.60;;;;;;6298239;28;20032;-72
2022/12/01 11:07:57;;;;;;;45.22;28.63;;;19.40;53.70;;;;;;6273988;28;20035;-72
2022/12/01 11:10:58;;;;;;;44.08;27.20;;;19.40;53.70;;;;;;6278001;28;20059;-72
2022/12/01 11:14:02;;;;;;;41.55;26.45;;;19.40;53.70;;;;;;6297141;28;20622;-68
2022/12/01 11:17:25;;;;;;;41.53;26.35;;;19.40;53.80;;;;;;6281369;28;20021;-70
2022/12/01 11:20:30;;;;;;;42.67;27.00;;;19.40;53.90;;;;;;6271831;28;20124;-71
2022/12/01 11:23:35;;;;;;;40.33;24.83;;;19.40;53.90;;;;;;6245553;28;20025;-68
2022/12/01 11:26:38;;;;;;;39.07;25.33;;;19.40;53.90;;;;;;6254312;28;20025;-69
2022/12/01 11:29:39;;;;;;;38.83;24.63;;;19.40;54.00;;;;;;6270940;28;20274;-69
2022/12/01 11:32:53;;;;;;;39.88;24.77;;;19.40;54.00;;;;;;6271237;28;20025;-68
2022/12/01 11:35:55;;;;;;;38.53;25.35;;;19.40;54.10;;;;;;6270726;28;20017;-68
2022/12/01 11:38:59;;;;;;;39.08;25.35;;;19.40;54.10;;;;;;6265485;28;20040;-69
2022/12/01 11:42:15;;;;;;;39.47;23.80;;;19.40;54.00;;;;;;6269292;28;20025;-68
2022/12/01 11:45:25;;;;;;;36.28;23.58;;;19.40;54.00;;;;;;6269543;28;20041;-69
2022/12/01 11:48:30;;;;;;;43.30;24.30;;;19.40;54.10;;;;;;6270365;28;20055;-69
2022/12/01 11:51:36;;;;;;;34.97;22.95;;;19.40;54.10;;;;;;6270772;28;20122;-69
2022/12/01 11:54:52;;;;;;;35.05;24.08;;;19.40;54.00;;;;;;6268861;28;20060;-69
2022/12/01 11:58:00;;;;;;;39.42;23.42;;;19.40;54.10;;;;;;6268767;28;20040;-69
2022/12/01 12:01:01;;;;;;;43.00;23.23;;;19.40;53.70;;;;;;6268789;28;20063;-72
2022/12/01 12:04:30;;;;;;;36.30;23.92;;;19.40;53.80;;;;;;6268313;28;20086;-69
2022/12/01 12:07:37;;;;;;;36.85;22.98;;;19.40;53.80;;;;;;6269393;28;20528;-70
2022/12/01 12:10:58;;;;;;;34.60;22.75;;;19.40;53.90;;;;;;6268357;28;20029;-69
2022/12/01 12:14:37;;;;;;;35.15;23.10;;;19.40;53.90;;;;;;6269596;28;20048;-72
2022/12/01 12:17:53;;;;;;;36.13;23.33;;;19.40;53.90;;;;;;6281651;28;20758;-71
2022/12/01 12:21:32;;;;;;;38.97;22.85;;;19.40;54.00;;;;;;6294754;28;20021;-71
2022/12/01 12:24:44;;;;;;;32.55;22.20;;;19.40;54.10;;;;;;6246174;28;20018;-72
2022/12/01 12:28:12;;;;;;;32.47;21.90;;;19.40;54.10;;;;;;6246891;28;20501;-73
2022/12/01 12:31:28;;;;;;;34.92;22.58;;;19.40;54.10;;;;;;6246261;28;20070;-71
2022/12/01 12:34:36;;;;;;;30.00;20.83;;;19.40;54.00;;;;;;6267139;28;20032;-69
2022/12/01 12:37:59;;;;;;;28.88;20.13;;;19.40;54.10;;;;;;6267288;28;20025;-70
2022/12/01 12:41:20;;;;;;;30.10;20.60;;;19.40;54.10;;;;;;6268898;28;20035;-70
2022/12/01 12:44:39;;;;;;;31.85;20.75;;;19.40;54.20;;;;;;6267702;28;20059;-70
2022/12/01 12:48:00;;;;;;;30.70;19.88;;;19.40;54.20;;;;;;6268172;28;20119;-70
2022/12/01 12:51:19;;;;;;;28.92;20.15;;;19.40;54.20;;;;;;6268336;28;20025;-70
2022/12/01 12:54:35;;;;;;;28.70;19.45;;;19.40;54.20;;;;;;6267955;28;20065;-70
2022/12/01 12:57:51;;;;;;;28.90;19.50;;;19.40;54.20;;;;;;6268616;28;20048;-69
2022/12/01 13:00:56;;;;;;;30.67;19.70;;;19.40;54.20;;;;;;6259836;28;20045;-70
2022/12/01 13:04:08;;;;;;;31.02;19.98;;;19.40;54.30;;;;;;6272330;28;20114;-70
2022/12/01 13:07:15;;;;;;;28.45;18.65;;;19.40;54.30;;;;;;6289456;28;20032;-70
2022/12/01 13:10:18;;;;;;;32.53;19.95;;;19.40;54.30;;;;;;6284819;28;20100;-70
2022/12/01 13:13:53;;;;;;;29.90;19.13;;;19.40;54.30;;;;;;6268824;28;20104;-69
2022/12/01 13:17:13;;;;;;;26.75;18.65;;;19.40;54.30;;;;;;6271490;28;20026;-69
2022/12/01 13:20:18;;;;;;;25.92;17.80;;;19.40;54.40;;;;;;6271429;28;20064;-69
2022/12/01 13:23:20;;;;;;;26.20;18.40;;;19.40;55.10;;;;;;6272932;28;20067;-70
2022/12/01 13:26:22;;;;;;;24.73;18.30;;;19.40;54.40;;;;;;6271364;28;20029;-69
2022/12/01 13:29:24;;;;;;;27.83;17.63;;;19.40;54.40;;;;;;6283849;28;20024;-68
2022/12/01 13:32:39;;;;;;;26.00;17.00;;;19.40;54.40;;;;;;6298041;28;20473;-70
2022/12/01 13:35:40;;;;;;;24.53;16.57;;;19.40;54.40;;;;;;6273964;28;20055;-70
2022/12/01 13:38:41;;;;;;;26.98;18.08;;;19.40;54.40;;;;;;6272681;28;20623;-70
2022/12/01 13:41:44;;;;;;;23.95;16.52;;;19.40;54.40;;;;;;6272751;28;20025;-69
2022/12/01 13:45:00;;;;;;;29.23;17.13;;;19.40;54.40;;;;;;6270868;28;20799;-70
2022/12/01 13:48:02;;;;;;;26.45;17.48;;;19.50;54.50;;;;;;6282026;28;20028;-70
2022/12/01 13:51:03;;;;;;;27.05;16.30;;;19.50;54.30;;;;;;6272984;28;20029;-70
2022/12/01 13:54:27;;;;;;;24.27;16.30;;;19.60;54.30;;;;;;6276953;28;20158;-70
2022/12/01 13:57:31;;;;;;;23.95;16.08;;;19.60;54.10;;;;;;6295300;28;20063;-69
2022/12/01 14:00:33;;;;;;;23.75;16.35;;;19.60;54.10;;;;;;6271874;28;20075;-70
2022/12/01 14:03:39;;;;;;;21.52;15.18;;;19.60;54.00;;;;;;6270196;28;20120;-70
2022/12/01 14:06:48;;;;;;;27.13;16.48;;;19.60;54.30;;;;;;6253801;28;20044;-70
2022/12/01 14:09:53;;;;;;;22.42;15.18;;;19.60;54.40;;;;;;6270455;28;20021;-69
2022/12/01 14:12:58;;;;;;;23.20;15.00;;;19.50;54.40;;;;;;6275539;28;20020;-70
2022/12/01 14:16:01;;;;;;;24.08;16.00;;;19.50;54.40;;;;;;6270067;28;20494;-69
2022/12/01 14:19:02;;;;;;;23.10;15.57;;;19.50;54.40;;;;;;6271851;28;20017;-70
2022/12/01 14:22:33;;;;;;;22.40;14.98;;;19.50;54.40;;;;;;6281560;28;20031;-69
2022/12/01 14:25:33;;;;;;;19.05;13.57;;;19.50;54.40;;;;;;6281026;28;20060;-69
2022/12/01 14:28:59;;;;;;;25.10;15.13;;;19.60;54.50;;;;;;6271410;28;20775;-72
2022/12/01 14:31:59;;;;;;;21.52;14.40;;;19.60;54.40;;;;;;6271689;28;20029;-70
2022/12/01 14:35:03;;;;;;;24.20;14.32;;;19.60;54.40;;;;;;6271809;28;20382;-70
2022/12/01 14:38:08;;;;;;;21.63;14.52;;;19.60;54.40;;;;;;6271832;28;20029;-69
2022/12/01 14:41:11;;;;;;;;;;;19.60;54.50;;;;;;6271756;28;20546;-69
2022/12/01 14:44:33;;;;;;;21.90;14.20;;;19.60;54.50;;;;;;6284580;28;19955;-69
2022/12/01 14:47:43;;;;;;;21.42;14.90;;;19.60;54.60;;;;;;6263620;28;20449;-70
2022/12/01 14:50:50;;;;;;;18.77;13.48;;;19.60;54.40;;;;;;6272905;28;20779;-72
2022/12/01 14:53:52;;;;;;;19.52;14.00;;;19.60;54.40;;;;;;6272828;28;20442;-71
2022/12/01 14:56:57;;;;;;;20.58;14.23;;;19.60;54.40;;;;;;6270811;28;20118;-74
2022/12/01 15:00:12;;;;;;;19.77;13.80;;;19.60;54.40;;;;;;6270817;28;20617;-74
2022/12/01 15:03:13;;;;;;;19.33;14.00;;;19.60;54.40;;;;;;6272466;28;20040;-74
2022/12/01 15:06:22;;;;;;;21.30;14.20;;;19.60;54.40;;;;;;6271126;28;20028;-75
2022/12/01 15:09:23;;;;;;;24.30;14.18;;;19.60;54.40;;;;;;6270688;28;20029;-73
2022/12/01 15:12:28;;;;;;;18.95;13.05;;;19.60;54.40;;;;;;6271195;28;20111;-72
2022/12/01 15:15:29;;;;;;;22.23;15.07;;;19.60;54.40;;;;;;6270550;28;20029;-72
2022/12/01 15:18:38;;;;;;;21.50;14.57;;;19.50;54.20;;;;;;6270807;28;20025;-71
2022/12/01 15:21:38;;;;;;;19.67;13.93;;;19.60;54.30;;;;;;6272581;28;20107;-73
2022/12/01 15:24:40;;;;;;;19.58;13.55;;;19.60;54.30;;;;;;6270349;28;20040;-73
2022/12/01 15:27:42;;;;;;;19.30;13.77;;;19.60;54.30;;;;;;6270567;28;20083;-71
2022/12/01 15:30:50;;;;;;;18.58;12.80;;;19.60;54.30;;;;;;6270297;28;20036;-73
2022/12/01 15:33:53;;;;;;;21.42;13.65;;;19.60;54.30;;;;;;6270805;28;20525;-72
2022/12/01 15:36:54;;;;;;;18.65;13.57;;;19.60;54.30;;;;;;6279047;28;20025;-73
2022/12/01 15:40:04;;;;;;;21.80;13.32;;;19.60;54.30;;;;;;6289063;28;20025;-70
2022/12/01 15:43:17;;;;;;;26.80;13.63;;;19.60;54.30;;;;;;6245642;28;20035;-74
2022/12/01 15:46:18;;;;;;;17.92;12.88;;;19.60;54.30;;;;;;6275561;28;20029;-73
2022/12/01 15:49:26;;;;;;;18.65;13.38;;;19.60;54.30;;;;;;6296112;28;20151;-74
2022/12/01 15:52:28;;;;;;;17.83;12.57;;;19.60;54.30;;;;;;6295036;28;20024;-74
2022/12/01 15:55:35;;;;;;;17.90;12.45;;;19.60;54.40;;;;;;6295870;28;20051;-73
2022/12/01 15:58:45;;;;;;;16.83;12.57;;;19.60;54.30;;;;;;6295545;28;20025;-70